Main page
METAR-TAF:

METAR-TAF

Airports :

Lanzhou Zhongchuan International Airport

Lanzhou, China

latitude: 36-02N, longitude: 103-52E, elevation: 1518 m

Current weather observation

The report was made 56 minutes ago, at 17:00 UTC
Wind 4 kt from the North/Northwest
Temperature -10°C
Humidity 61%
Pressure 1023 hPa
Visibility 10 km or more
no clouds below 1500 m and no cumulonimbus

METAR: ZLLL 091700Z 33002MPS CAVOK M10/M16 Q1023 NOSIG

Time: 01:56 (17:56 UTC)

Forecast

The report was made 2 hours and 55 minutes ago, at 15:01 UTC
Forecast valid from 09 at 18 UTC to 10 at 18 UTC
Wind 6 kt from the North
Visibility: 6000 m

TAF: ZLLL 091501Z 0918/1018 35003MPS 6000 NSC TX05/1008Z TNM14/23Z

Weather observations and forecasts of more than 4000 airports (METAR and TAF reports).

The available stations are represented by yellow and red dots on the map.

Hover mouse over dot to see the name of the station.

Then click to see weather observations and forecasts.

To change the map : click on the green buttons with a black cross to zoom in, on the green button with a dash to zoom out, or on the green arrows for adjacent maps.


METAR-TAF: